Terminal Aerodrome Forecast
Issued by NWS

Home | Current Version | Previous Version | Text Only | Print | Product List | Glossary On
Versions: 1 2 3 4 5 6 7 8 9 10 11 12 13 14 15 16 17 18
267
FTUS44 KBMX 071120
TAFTCL
TAF
KTCL 071120Z 0712/0812 35004KT P6SM SCT009 OVC012
     FM071900 31005KT P6SM OVC020
     FM080400 33005KT P6SM OVC050=

USA.gov is the U.S. government's official web portal to all federal, state and local government web resources and services.